createdAt,value
2023-02-24T00:01:03.059Z,6.00
2023-02-24T00:03:51.264Z,6.00
2023-02-24T00:06:41.143Z,5.90
2023-02-24T00:09:31.308Z,5.80
2023-02-24T00:12:20.695Z,5.70
2023-02-24T00:15:09.373Z,5.70
2023-02-24T00:17:58.468Z,5.70
2023-02-24T00:20:46.570Z,5.60
2023-02-24T00:23:35.826Z,5.60
2023-02-24T00:26:25.260Z,5.50
2023-02-24T00:29:14.461Z,5.40
2023-02-24T00:32:06.712Z,5.40
2023-02-24T00:34:55.711Z,5.40
2023-02-24T00:37:43.754Z,5.40
2023-02-24T00:40:32.120Z,5.30
2023-02-24T00:43:21.552Z,5.30
2023-02-24T00:46:11.475Z,5.30
2023-02-24T00:48:59.635Z,5.30
2023-02-24T00:51:48.837Z,5.30
2023-02-24T00:54:37.090Z,5.30
2023-02-24T00:57:25.328Z,5.30
2023-02-24T01:00:16.703Z,5.20
2023-02-24T01:03:04.879Z,5.20
2023-02-24T01:05:53.379Z,5.20
2023-02-24T01:08:47.410Z,5.10
2023-02-24T01:11:54.278Z,5.10
2023-02-24T01:14:44.764Z,5.10
2023-02-24T01:17:36.258Z,5.10
2023-02-24T01:20:24.348Z,5.10
2023-02-24T01:23:12.422Z,5.10
2023-02-24T01:26:01.076Z,5.10
2023-02-24T01:28:49.230Z,5.10
2023-02-24T01:31:38.411Z,5.10
2023-02-24T01:34:28.461Z,5.10
2023-02-24T01:37:16.991Z,5.00
2023-02-24T01:40:11.874Z,5.00
2023-02-24T01:42:59.994Z,5.00
2023-02-24T01:45:51.754Z,5.00
2023-02-24T01:48:39.935Z,5.00
2023-02-24T01:51:31.258Z,5.00
2023-02-24T01:54:20.782Z,5.00
2023-02-24T01:57:09.759Z,5.00
2023-02-24T02:00:02.262Z,5.00
2023-02-24T02:02:52.892Z,4.90
2023-02-24T02:05:41.979Z,4.90
2023-02-24T02:08:32.009Z,4.90
2023-02-24T02:11:22.454Z,4.90
2023-02-24T02:14:10.973Z,4.90
2023-02-24T02:17:04.285Z,4.90
2023-02-24T02:20:15.478Z,4.90
2023-02-24T02:23:22.131Z,4.90
2023-02-24T02:26:24.069Z,4.80
2023-02-24T02:29:42.186Z,4.90
2023-02-24T02:32:51.937Z,4.80
2023-02-24T02:35:46.439Z,4.70
2023-02-24T02:38:37.196Z,4.70
2023-02-24T02:41:28.513Z,4.70
2023-02-24T02:44:20.204Z,4.70
2023-02-24T02:47:13.253Z,4.60
2023-02-24T02:50:02.922Z,4.60
2023-02-24T02:52:56.609Z,4.60
2023-02-24T02:55:47.028Z,4.60
2023-02-24T02:58:37.188Z,4.70
2023-02-24T03:01:28.344Z,4.60
2023-02-24T03:04:17.897Z,4.60
2023-02-24T03:07:06.555Z,4.60
2023-02-24T03:09:58.308Z,4.60
2023-02-24T03:12:47.108Z,4.60
2023-02-24T03:15:35.348Z,4.60
2023-02-24T03:18:29.045Z,4.60
2023-02-24T03:21:18.490Z,4.60
2023-02-24T03:24:07.266Z,4.60
2023-02-24T03:27:01.662Z,4.70
2023-02-24T03:29:52.746Z,4.70
2023-02-24T03:32:44.118Z,4.60
2023-02-24T03:35:34.404Z,4.60
2023-02-24T03:38:24.545Z,4.60
2023-02-24T03:41:13.458Z,4.50
2023-02-24T03:44:03.722Z,4.50
2023-02-24T03:46:51.891Z,4.50
2023-02-24T03:49:43.616Z,4.50
2023-02-24T03:52:35.844Z,4.50
2023-02-24T03:55:33.253Z,4.50
2023-02-24T03:58:30.910Z,4.50
2023-02-24T04:01:25.508Z,4.50
2023-02-24T04:04:16.622Z,4.50
2023-02-24T04:07:09.833Z,4.50
2023-02-24T04:10:02.754Z,4.50
2023-02-24T04:12:51.620Z,4.60
2023-02-24T04:15:43.905Z,4.60
2023-02-24T04:18:33.874Z,4.60
2023-02-24T04:21:23.665Z,4.50
2023-02-24T04:24:15.948Z,4.40
2023-02-24T04:27:06.496Z,4.40
2023-02-24T04:29:55.725Z,4.40
2023-02-24T04:32:44.318Z,4.40
2023-02-24T04:35:34.197Z,4.40
2023-02-24T04:38:22.394Z,4.40
2023-02-24T04:41:10.476Z,4.40
2023-02-24T04:43:58.518Z,4.40
2023-02-24T04:46:46.867Z,4.40
2023-02-24T04:49:34.991Z,4.40
2023-02-24T04:52:24.433Z,4.50
2023-02-24T04:55:12.733Z,4.50
2023-02-24T04:58:01.131Z,4.50
2023-02-24T05:00:52.690Z,4.50
2023-02-24T05:03:42.568Z,4.50
2023-02-24T05:06:30.779Z,4.60
2023-02-24T05:09:20.224Z,4.50
2023-02-24T05:12:09.546Z,4.50
2023-02-24T05:15:01.251Z,4.50
2023-02-24T05:17:51.569Z,4.50
2023-02-24T05:20:58.451Z,4.40
2023-02-24T05:23:47.724Z,4.40
2023-02-24T05:26:38.003Z,4.40
2023-02-24T05:29:28.218Z,4.30
2023-02-24T05:32:16.864Z,4.40
2023-02-24T05:35:05.535Z,4.40
2023-02-24T05:37:55.018Z,4.30
2023-02-24T05:40:46.764Z,4.40
2023-02-24T05:43:39.264Z,4.40
2023-02-24T05:46:29.068Z,4.40
2023-02-24T05:49:20.918Z,4.40
2023-02-24T05:52:09.674Z,4.40
2023-02-24T05:54:57.778Z,4.40
2023-02-24T05:57:45.907Z,4.50
2023-02-24T06:00:39.088Z,4.50
2023-02-24T06:03:31.043Z,4.50
2023-02-24T06:06:19.138Z,4.50
2023-02-24T06:09:10.783Z,4.50
2023-02-24T06:11:58.979Z,4.40
2023-02-24T06:14:47.160Z,4.40
2023-02-24T06:17:36.834Z,4.40
2023-02-24T06:20:26.817Z,4.40
2023-02-24T06:23:16.909Z,4.30
2023-02-24T06:26:05.564Z,4.30
2023-02-24T06:28:54.124Z,4.30
2023-02-24T06:31:42.479Z,4.30
2023-02-24T06:34:33.183Z,4.30
2023-02-24T06:37:22.984Z,4.20
2023-02-24T06:40:15.805Z,4.20
2023-02-24T06:43:03.954Z,4.30
2023-02-24T06:45:52.042Z,4.20
2023-02-24T06:48:40.208Z,4.20
2023-02-24T06:51:30.353Z,4.20
2023-02-24T06:54:19.158Z,4.30
2023-02-24T06:57:09.884Z,4.30
2023-02-24T06:59:57.991Z,4.30
2023-02-24T07:02:46.059Z,4.40
2023-02-24T07:05:34.340Z,4.40
2023-02-24T07:08:24.629Z,4.40
2023-02-24T07:11:14.046Z,4.40
2023-02-24T07:14:02.492Z,4.40
2023-02-24T07:16:54.300Z,4.40
2023-02-24T07:19:42.757Z,4.40
2023-02-24T07:22:31.850Z,4.40
2023-02-24T07:25:33.330Z,4.30
2023-02-24T07:28:21.470Z,4.30
2023-02-24T07:31:10.584Z,4.30
2023-02-24T07:34:01.175Z,4.40
2023-02-24T07:36:50.131Z,4.30
2023-02-24T07:39:39.286Z,4.30
2023-02-24T07:42:30.668Z,4.30
2023-02-24T07:45:18.814Z,4.30
2023-02-24T07:48:06.920Z,4.30
2023-02-24T07:50:54.986Z,4.30
2023-02-24T07:53:43.652Z,4.30
2023-02-24T07:56:32.943Z,4.30
2023-02-24T07:59:22.822Z,4.40
2023-02-24T08:02:11.471Z,4.40
2023-02-24T08:05:02.841Z,4.50
2023-02-24T08:07:52.108Z,4.50
2023-02-24T08:10:41.465Z,4.50
2023-02-24T08:13:37.606Z,4.60
2023-02-24T08:16:39.380Z,4.60
2023-02-24T08:19:32.884Z,4.70
2023-02-24T08:22:21.164Z,4.80
2023-02-24T08:25:10.253Z,4.80
2023-02-24T08:28:08.561Z,4.80
2023-02-24T08:30:57.797Z,4.90
2023-02-24T08:33:47.294Z,4.80
2023-02-24T08:36:35.350Z,4.80
2023-02-24T08:39:23.525Z,4.90
2023-02-24T08:42:14.272Z,4.90
2023-02-24T08:45:02.826Z,4.90
2023-02-24T08:47:53.776Z,4.90
2023-02-24T08:50:45.672Z,4.90
2023-02-24T08:53:33.790Z,4.90
2023-02-24T08:56:24.836Z,4.90
2023-02-24T08:59:29.039Z,5.00
2023-02-24T09:02:27.424Z,5.00
2023-02-24T09:05:16.944Z,5.10
2023-02-24T09:08:06.870Z,5.10
2023-02-24T09:10:54.942Z,5.10
2023-02-24T09:13:51.639Z,5.10
2023-02-24T09:16:52.426Z,5.10
2023-02-24T09:20:01.480Z,5.10
2023-02-24T09:23:00.621Z,5.10
2023-02-24T09:25:54.495Z,5.10
2023-02-24T09:28:49.600Z,5.00
2023-02-24T09:31:48.175Z,4.90
2023-02-24T09:34:38.187Z,4.80
2023-02-24T09:37:31.586Z,4.80
2023-02-24T09:40:42.761Z,4.60
2023-02-24T09:43:40.241Z,4.60
2023-02-24T09:46:28.720Z,4.60
2023-02-24T09:49:18.303Z,4.60
2023-02-24T09:52:16.615Z,4.60
2023-02-24T09:55:19.050Z,4.50
2023-02-24T09:58:34.868Z,4.50
2023-02-24T10:01:34.495Z,4.50
2023-02-24T10:04:36.056Z,4.50
2023-02-24T10:07:26.515Z,4.40
2023-02-24T10:10:28.132Z,4.40
2023-02-24T10:13:30.203Z,4.50
2023-02-24T10:16:24.304Z,4.50
2023-02-24T10:19:19.135Z,4.50
2023-02-24T10:22:23.057Z,4.50
2023-02-24T10:25:23.767Z,4.50
2023-02-24T10:28:20.120Z,4.50
2023-02-24T10:31:25.260Z,4.60
2023-02-24T10:34:20.806Z,4.60
2023-02-24T10:37:26.166Z,4.60
2023-02-24T10:40:26.478Z,4.50
2023-02-24T10:43:17.915Z,4.40
2023-02-24T10:46:17.334Z,4.30
2023-02-24T10:49:09.966Z,4.20
2023-02-24T10:52:01.016Z,4.10
2023-02-24T10:55:05.385Z,4.00
2023-02-24T10:58:05.865Z,4.00
2023-02-24T11:01:13.427Z,4.00
2023-02-24T11:04:12.323Z,4.00
2023-02-24T11:07:09.749Z,3.90
2023-02-24T11:10:11.448Z,3.80
2023-02-24T11:13:30.567Z,3.70
2023-02-24T11:16:36.513Z,3.60
2023-02-24T11:19:28.410Z,3.60
2023-02-24T11:22:21.099Z,3.60
2023-02-24T11:25:14.198Z,3.60
2023-02-24T11:28:03.009Z,3.60
2023-02-24T11:30:57.468Z,3.70
2023-02-24T11:33:52.432Z,3.60
2023-02-24T11:36:46.329Z,3.40
2023-02-24T11:39:44.030Z,3.30
2023-02-24T11:42:34.174Z,3.30
2023-02-24T11:45:29.385Z,3.20
2023-02-24T11:48:19.729Z,3.10
2023-02-24T11:51:10.356Z,3.00
2023-02-24T11:54:01.071Z,3.00
2023-02-24T11:56:54.019Z,3.00
2023-02-24T11:59:45.355Z,3.00
2023-02-24T12:02:35.750Z,2.90
2023-02-24T12:05:26.756Z,3.00
2023-02-24T12:08:19.867Z,3.00
2023-02-24T12:11:12.642Z,3.10
2023-02-24T12:14:06.967Z,3.10
2023-02-24T12:16:59.280Z,3.20
2023-02-24T12:19:57.456Z,3.10
2023-02-24T12:22:47.771Z,3.30
2023-02-24T12:25:40.700Z,3.30
2023-02-24T12:28:36.374Z,3.30
2023-02-24T12:31:32.180Z,3.50
2023-02-24T12:34:24.433Z,3.50
2023-02-24T12:37:21.701Z,3.50
2023-02-24T12:40:23.289Z,3.50
2023-02-24T12:43:20.151Z,3.50
2023-02-24T12:46:12.407Z,3.50
2023-02-24T12:49:11.900Z,3.40
2023-02-24T12:52:07.630Z,3.30
2023-02-24T12:54:59.830Z,3.40
2023-02-24T12:57:53.737Z,3.30
2023-02-24T13:00:47.472Z,3.30
2023-02-24T13:03:46.153Z,3.20
2023-02-24T13:06:46.837Z,3.20
2023-02-24T13:09:38.300Z,3.30
2023-02-24T13:12:29.908Z,3.30
2023-02-24T13:15:20.208Z,3.20
2023-02-24T13:18:11.110Z,3.20
2023-02-24T13:21:04.197Z,3.10
2023-02-24T13:23:58.308Z,3.20
2023-02-24T13:26:46.572Z,3.20
2023-02-24T13:29:43.761Z,3.20
2023-02-24T13:32:33.460Z,3.10
2023-02-24T13:35:30.998Z,3.10
2023-02-24T13:38:27.077Z,3.10
2023-02-24T13:41:24.403Z,3.00
2023-02-24T13:44:23.893Z,3.00
2023-02-24T13:47:34.224Z,3.00
2023-02-24T13:50:25.209Z,3.00
2023-02-24T13:53:18.132Z,3.00
2023-02-24T13:56:14.769Z,3.00
2023-02-24T13:59:10.243Z,2.90
2023-02-24T14:01:59.633Z,2.90
2023-02-24T14:04:49.467Z,3.00
2023-02-24T14:07:38.506Z,2.90
2023-02-24T14:10:28.336Z,2.90
2023-02-24T14:13:17.596Z,2.90
2023-02-24T14:16:08.866Z,2.90
2023-02-24T14:18:58.077Z,2.90
2023-02-24T14:21:50.584Z,2.90
2023-02-24T14:24:38.676Z,3.00
2023-02-24T14:27:27.421Z,3.00
2023-02-24T14:30:23.372Z,3.00
2023-02-24T14:33:23.294Z,3.00
2023-02-24T14:36:16.193Z,3.00
2023-02-24T14:39:09.046Z,3.00
2023-02-24T14:42:05.108Z,3.00
2023-02-24T14:44:54.092Z,3.10
2023-02-24T14:47:43.290Z,3.10
2023-02-24T14:50:34.240Z,3.10
2023-02-24T14:53:23.931Z,3.10
2023-02-24T14:56:13.231Z,3.10
2023-02-24T14:59:03.398Z,3.20
2023-02-24T15:01:54.871Z,3.20
2023-02-24T15:04:44.479Z,3.20
2023-02-24T15:07:34.927Z,3.20
2023-02-24T15:10:24.325Z,3.20
2023-02-24T15:13:16.641Z,3.20
2023-02-24T15:16:07.236Z,3.30
2023-02-24T15:18:56.522Z,3.30
2023-02-24T15:21:44.587Z,3.40
2023-02-24T15:24:35.438Z,3.40
2023-02-24T15:27:26.247Z,3.50
2023-02-24T15:30:26.374Z,3.50
2023-02-24T15:33:18.518Z,3.50
2023-02-24T15:36:09.887Z,3.50
2023-02-24T15:39:00.998Z,3.50
2023-02-24T15:41:51.279Z,3.50
2023-02-24T15:44:39.496Z,3.60
2023-02-24T15:47:28.940Z,3.60
2023-02-24T15:50:17.328Z,3.60
2023-02-24T15:53:05.648Z,3.60
2023-02-24T15:55:57.047Z,3.60
2023-02-24T15:58:46.713Z,3.60
2023-02-24T16:01:35.186Z,3.70
2023-02-24T16:04:23.777Z,3.70
2023-02-24T16:07:12.286Z,3.80
2023-02-24T16:10:01.220Z,3.80
2023-02-24T16:12:51.128Z,3.90
2023-02-24T16:15:42.948Z,3.80
2023-02-24T16:18:31.057Z,3.80
2023-02-24T16:21:19.651Z,3.80
2023-02-24T16:24:07.834Z,3.80
2023-02-24T16:26:55.916Z,3.80
2023-02-24T16:29:44.144Z,3.70
2023-02-24T16:32:33.699Z,3.70
2023-02-24T16:35:21.895Z,3.70
2023-02-24T16:38:15.147Z,3.80
2023-02-24T16:41:04.420Z,3.80
2023-02-24T16:43:52.464Z,3.90
2023-02-24T16:46:42.185Z,3.90
2023-02-24T16:49:31.641Z,3.90
2023-02-24T16:52:20.720Z,3.90
2023-02-24T16:55:11.576Z,4.00
2023-02-24T16:57:59.790Z,4.00
2023-02-24T17:00:49.921Z,4.00
2023-02-24T17:03:42.340Z,4.00
2023-02-24T17:06:32.192Z,4.00
2023-02-24T17:09:20.259Z,4.00
2023-02-24T17:12:08.751Z,4.00
2023-02-24T17:14:58.886Z,4.10
2023-02-24T17:17:47.253Z,4.10
2023-02-24T17:20:36.226Z,4.10
2023-02-24T17:23:25.637Z,4.10
2023-02-24T17:26:15.147Z,4.10
2023-02-24T17:29:03.286Z,4.10
2023-02-24T17:31:51.531Z,4.00
2023-02-24T17:34:39.777Z,4.10
2023-02-24T17:37:27.939Z,4.10
2023-02-24T17:40:18.012Z,4.10
2023-02-24T17:43:07.599Z,4.10
2023-02-24T17:45:55.689Z,4.10
2023-02-24T17:48:43.810Z,4.10
2023-02-24T17:51:32.176Z,4.20
2023-02-24T17:54:20.278Z,4.20
2023-02-24T17:57:09.026Z,4.20
2023-02-24T17:59:58.454Z,4.20
2023-02-24T18:02:46.622Z,4.20
2023-02-24T18:05:34.769Z,4.20
2023-02-24T18:08:22.859Z,4.20
2023-02-24T18:11:16.101Z,4.20
2023-02-24T18:14:04.442Z,4.20
2023-02-24T18:16:54.939Z,4.10
2023-02-24T18:19:43.032Z,4.10
2023-02-24T18:22:31.176Z,4.00
2023-02-24T18:25:19.276Z,4.00
2023-02-24T18:28:07.679Z,4.00
2023-02-24T18:30:55.928Z,3.90
2023-02-24T18:33:45.585Z,3.90
2023-02-24T18:36:33.834Z,3.90
2023-02-24T18:39:21.965Z,3.90
2023-02-24T18:42:10.034Z,3.90
2023-02-24T18:44:58.252Z,3.90
2023-02-24T18:47:46.699Z,3.90
2023-02-24T18:50:36.151Z,4.00
2023-02-24T18:53:24.928Z,4.00
2023-02-24T18:56:14.564Z,4.00
2023-02-24T18:59:03.108Z,4.10
2023-02-24T19:01:51.521Z,4.00
2023-02-24T19:04:39.633Z,4.10
2023-02-24T19:07:29.682Z,4.10
2023-02-24T19:10:18.060Z,4.10
2023-02-24T19:13:06.927Z,4.10
2023-02-24T19:15:55.181Z,4.10
2023-02-24T19:18:43.725Z,4.00
2023-02-24T19:21:32.478Z,3.90
2023-02-24T19:24:22.216Z,3.90
2023-02-24T19:27:10.302Z,3.80
2023-02-24T19:29:58.422Z,3.80
2023-02-24T19:32:46.723Z,3.80
2023-02-24T19:35:35.128Z,3.80
2023-02-24T19:38:23.811Z,3.80
2023-02-24T19:41:13.268Z,3.80
2023-02-24T19:44:01.412Z,3.80
2023-02-24T19:46:49.509Z,3.80
2023-02-24T19:49:37.743Z,3.90
2023-02-24T19:52:25.864Z,3.90
2023-02-24T19:55:13.975Z,3.90
2023-02-24T19:58:03.423Z,3.90
2023-02-24T20:00:51.508Z,3.90
2023-02-24T20:03:40.664Z,3.90
2023-02-24T20:06:31.432Z,3.90
2023-02-24T20:09:21.856Z,4.00
2023-02-24T20:12:10.235Z,4.00
2023-02-24T20:14:59.625Z,4.00
2023-02-24T20:17:49.710Z,4.10
2023-02-24T20:20:37.895Z,4.10
2023-02-24T20:23:26.411Z,4.10
2023-02-24T20:26:16.183Z,4.20
2023-02-24T20:29:04.589Z,4.20
2023-02-24T20:31:54.058Z,4.20
2023-02-24T20:34:42.498Z,4.20
2023-02-24T20:37:30.626Z,4.20
2023-02-24T20:40:19.403Z,4.20
2023-02-24T20:43:08.579Z,4.30
2023-02-24T20:45:56.776Z,4.30
2023-02-24T20:48:46.812Z,4.30
2023-02-24T20:51:35.763Z,4.20
2023-02-24T20:54:24.493Z,4.20
2023-02-24T20:57:13.420Z,4.20
2023-02-24T21:00:07.226Z,4.20
2023-02-24T21:02:58.030Z,4.20
2023-02-24T21:05:47.828Z,4.20
2023-02-24T21:08:35.954Z,4.20
2023-02-24T21:11:24.165Z,4.20
2023-02-24T21:14:14.674Z,4.20
2023-02-24T21:17:03.071Z,4.20
2023-02-24T21:19:51.166Z,4.20
2023-02-24T21:22:41.164Z,4.20
2023-02-24T21:25:29.664Z,4.30
2023-02-24T21:28:17.771Z,4.30
2023-02-24T21:31:08.759Z,4.30
2023-02-24T21:33:57.277Z,4.40
2023-02-24T21:36:45.370Z,4.40
2023-02-24T21:39:35.050Z,4.50
2023-02-24T21:42:23.247Z,4.50
2023-02-24T21:45:11.939Z,4.50
2023-02-24T21:48:00.007Z,4.50
2023-02-24T21:50:57.601Z,4.50
2023-02-24T21:53:47.976Z,4.50
2023-02-24T21:56:37.561Z,4.50
2023-02-24T21:59:25.705Z,4.50
2023-02-24T22:02:15.634Z,4.50
2023-02-24T22:05:03.749Z,4.50
2023-02-24T22:07:52.036Z,4.60
2023-02-24T22:10:40.137Z,4.60
2023-02-24T22:13:29.528Z,4.60
2023-02-24T22:16:19.049Z,4.60
2023-02-24T22:19:07.568Z,4.60
2023-02-24T22:21:58.820Z,4.50
2023-02-24T22:24:47.033Z,4.40
2023-02-24T22:27:35.278Z,4.30
2023-02-24T22:30:24.794Z,4.30
2023-02-24T22:33:12.928Z,4.30
2023-02-24T22:36:02.740Z,4.20
2023-02-24T22:38:50.858Z,4.10
2023-02-24T22:41:39.196Z,4.00
2023-02-24T22:44:27.389Z,3.90
2023-02-24T22:47:16.936Z,3.80
2023-02-24T22:50:05.164Z,3.70
2023-02-24T22:52:53.220Z,3.70
2023-02-24T22:55:46.195Z,3.60
2023-02-24T22:58:34.269Z,3.60
2023-02-24T23:01:24.133Z,3.70
2023-02-24T23:04:15.968Z,3.70
2023-02-24T23:07:04.563Z,3.70
2023-02-24T23:09:53.402Z,3.70
2023-02-24T23:12:41.595Z,3.70
2023-02-24T23:15:29.802Z,3.70
2023-02-24T23:18:17.898Z,3.70
2023-02-24T23:21:08.852Z,3.70
2023-02-24T23:23:57.118Z,3.70
2023-02-24T23:26:46.491Z,3.70
2023-02-24T23:29:37.473Z,3.70
2023-02-24T23:32:27.996Z,3.60
2023-02-24T23:35:16.357Z,3.60
2023-02-24T23:38:05.886Z,3.60
2023-02-24T23:40:53.952Z,3.70
2023-02-24T23:43:42.020Z,3.70
2023-02-24T23:46:30.130Z,3.80
2023-02-24T23:49:18.211Z,3.90
2023-02-24T23:52:06.248Z,3.90
2023-02-24T23:54:55.663Z,4.00
2023-02-24T23:57:43.717Z,4.00
